Aeroporto :
LOGIN :

Iscrizione | Disclaimer

   EN    FR    IT 

 










Sommario :    VFR   VFR Marginale   IFR   IFR Intensivo   IFR Molto Intensivo
Visibilità : 
Base nubi : 
>= 8 km
>= 3000ft
5 / 8 km
1000 / 3000 ft
1500m / 5 km
500 / 1000 ft
800 / 1500m
200 / 500 ft
< 800m
< 200 ft
Simboli :   Temporali  Nebbia  Neve Forte  Precipitazioni Forti  Vento > 20 kt
SIGMETs :   Varie  Temporali  Ghiacco  Turbolenza  Onda orograficha  Ceneri Vulcaniche







- Altitudine del aeroporto : 24 ft
- Codice IATA : FAO


LPFR - Faro

ULTIMO METAR :
  • 161930Z VRB02KT 9999 FEW022 SCT040 13/09 Q1018

METARs OBSOLETI :
  • 161900Z VRB02KT 9999 FEW025 SCT040 14/10 Q1018
  • 161830Z 25003KT 9999 FEW025 SCT040 14/09 Q1018
  • 161800Z 24003KT 9999 FEW025 SCT040 14/09 Q1018
  • 161730Z 23003KT 9999 FEW020 SCT035 14/10 Q1018
  • 161700Z 22004KT 9999 FEW018 SCT030 14/10 Q1018

TAF TAF LPFR
Valido dal 16 a 18 ore il 17 a 18 ore UTC


161700Z 1618/1718 20005KT 9999 SCT030
BECMG 1618/1621 VRB03KT
BECMG 1710/1712 01010KT FEW035
Nessun NOTAM noto per questo aeroporto.



MetMap, La meteo Aeronautica in un colpo d'occhio ! - Copyright ORBIFLY Dicembre 2007 - Disclaimer

ORBIFLY MET'MAP TEAM :

Programmazione e sviluppo : Alexandra Zaïnal
Concezione e sviluppo : Baudouin d'Aumeries
Co-Programmazione e sviluppo : Marc-Olivier Méhu
Supporto tecnico e logistico : Manuel Goepfert
Aiuto per la traduzione : Arnaldo La Scala

Contatto : metmap@orbifly.com




FONTI E CREDITI :

   NOAA